sensor_id;sensor_type;location;lat;lon;timestamp;pressure;altitude;pressure_sealevel;temperature
40624;BMP280;26325;48.594;11.650;2023-04-08T00:01:42;96719.53;;;1.90
40624;BMP280;26325;48.594;11.650;2023-04-08T00:04:08;96717.25;;;2.02
40624;BMP280;26325;48.594;11.650;2023-04-08T00:06:34;96723.59;;;2.06
40624;BMP280;26325;48.594;11.650;2023-04-08T00:08:59;96722.69;;;1.92
40624;BMP280;26325;48.594;11.650;2023-04-08T00:11:25;96723.44;;;2.13
40624;BMP280;26325;48.594;11.650;2023-04-08T00:13:50;96721.56;;;2.01
40624;BMP280;26325;48.594;11.650;2023-04-08T00:16:16;96737.34;;;2.11
40624;BMP280;26325;48.594;11.650;2023-04-08T00:18:41;96725.56;;;2.10
40624;BMP280;26325;48.594;11.650;2023-04-08T00:21:07;96722.97;;;2.04
40624;BMP280;26325;48.594;11.650;2023-04-08T00:23:32;96726.91;;;2.06
40624;BMP280;26325;48.594;11.650;2023-04-08T00:25:58;96720.25;;;1.85
40624;BMP280;26325;48.594;11.650;2023-04-08T00:28:23;96722.59;;;1.80
40624;BMP280;26325;48.594;11.650;2023-04-08T00:30:48;96715.97;;;1.85
40624;BMP280;26325;48.594;11.650;2023-04-08T00:33:15;96716.44;;;1.95
40624;BMP280;26325;48.594;11.650;2023-04-08T00:35:40;96713.94;;;1.81
40624;BMP280;26325;48.594;11.650;2023-04-08T00:38:06;96718.47;;;1.79
40624;BMP280;26325;48.594;11.650;2023-04-08T00:40:33;96722.19;;;1.83
40624;BMP280;26325;48.594;11.650;2023-04-08T00:42:58;96729.78;;;1.97
40624;BMP280;26325;48.594;11.650;2023-04-08T00:45:24;96728.25;;;2.02
40624;BMP280;26325;48.594;11.650;2023-04-08T00:47:49;96725.88;;;2.01
40624;BMP280;26325;48.594;11.650;2023-04-08T00:50:17;96730.22;;;2.07
40624;BMP280;26325;48.594;11.650;2023-04-08T00:52:42;96730.34;;;2.19
40624;BMP280;26325;48.594;11.650;2023-04-08T00:55:08;96740.28;;;2.41
40624;BMP280;26325;48.594;11.650;2023-04-08T00:57:33;96738.63;;;2.54
40624;BMP280;26325;48.594;11.650;2023-04-08T00:59:59;96737.16;;;2.39
40624;BMP280;26325;48.594;11.650;2023-04-08T01:02:58;96737.50;;;2.36
40624;BMP280;26325;48.594;11.650;2023-04-08T01:08:20;96742.25;;;2.39
40624;BMP280;26325;48.594;11.650;2023-04-08T01:10:47;96742.72;;;2.49
40624;BMP280;26325;48.594;11.650;2023-04-08T01:13:17;96731.97;;;2.60
40624;BMP280;26325;48.594;11.650;2023-04-08T01:15:43;96735.38;;;2.66
40624;BMP280;26325;48.594;11.650;2023-04-08T01:18:13;96736.56;;;2.70
40624;BMP280;26325;48.594;11.650;2023-04-08T01:20:41;96734.50;;;2.60
40624;BMP280;26325;48.594;11.650;2023-04-08T01:25:38;96732.72;;;2.54
40624;BMP280;26325;48.594;11.650;2023-04-08T01:28:12;96737.22;;;2.52
40624;BMP280;26325;48.594;11.650;2023-04-08T01:30:40;96737.56;;;2.43
40624;BMP280;26325;48.594;11.650;2023-04-08T01:33:06;96733.47;;;2.48
40624;BMP280;26325;48.594;11.650;2023-04-08T01:35:31;96730.31;;;2.46
40624;BMP280;26325;48.594;11.650;2023-04-08T01:37:57;96731.72;;;2.48
40624;BMP280;26325;48.594;11.650;2023-04-08T01:40:23;96725.44;;;2.51
40624;BMP280;26325;48.594;11.650;2023-04-08T01:42:50;96724.66;;;2.50
40624;BMP280;26325;48.594;11.650;2023-04-08T01:45:17;96728.59;;;2.53
40624;BMP280;26325;48.594;11.650;2023-04-08T01:47:46;96733.19;;;2.64
40624;BMP280;26325;48.594;11.650;2023-04-08T01:50:17;96724.16;;;2.67
40624;BMP280;26325;48.594;11.650;2023-04-08T01:52:44;96727.16;;;2.77
40624;BMP280;26325;48.594;11.650;2023-04-08T01:55:10;96723.09;;;2.89
40624;BMP280;26325;48.594;11.650;2023-04-08T01:57:37;96733.72;;;2.92
40624;BMP280;26325;48.594;11.650;2023-04-08T02:00:08;96721.50;;;2.82
40624;BMP280;26325;48.594;11.650;2023-04-08T02:02:35;96728.81;;;2.91
40624;BMP280;26325;48.594;11.650;2023-04-08T02:05:01;96732.38;;;3.03
40624;BMP280;26325;48.594;11.650;2023-04-08T02:07:29;96733.94;;;3.03
40624;BMP280;26325;48.594;11.650;2023-04-08T02:09:55;96738.69;;;3.06
40624;BMP280;26325;48.594;11.650;2023-04-08T02:12:21;96735.59;;;3.17
40624;BMP280;26325;48.594;11.650;2023-04-08T02:14:47;96738.78;;;3.44
40624;BMP280;26325;48.594;11.650;2023-04-08T02:20:09;96743.88;;;3.25
40624;BMP280;26325;48.594;11.650;2023-04-08T02:23:06;96733.22;;;3.16
40624;BMP280;26325;48.594;11.650;2023-04-08T02:25:37;96731.22;;;3.11
40624;BMP280;26325;48.594;11.650;2023-04-08T02:28:04;96729.72;;;3.23
40624;BMP280;26325;48.594;11.650;2023-04-08T02:30:30;96739.72;;;3.18
40624;BMP280;26325;48.594;11.650;2023-04-08T02:32:57;96732.47;;;3.28
40624;BMP280;26325;48.594;11.650;2023-04-08T02:35:25;96740.91;;;3.22
40624;BMP280;26325;48.594;11.650;2023-04-08T02:37:51;96741.50;;;3.24
40624;BMP280;26325;48.594;11.650;2023-04-08T02:40:24;96736.34;;;3.11
40624;BMP280;26325;48.594;11.650;2023-04-08T02:42:50;96753.28;;;3.25
40624;BMP280;26325;48.594;11.650;2023-04-08T02:45:16;96743.50;;;3.35
40624;BMP280;26325;48.594;11.650;2023-04-08T02:47:42;96739.75;;;3.37
40624;BMP280;26325;48.594;11.650;2023-04-08T02:50:07;96747.56;;;3.17
40624;BMP280;26325;48.594;11.650;2023-04-08T02:52:38;96741.50;;;3.24
40624;BMP280;26325;48.594;11.650;2023-04-08T02:55:04;96741.09;;;3.27
40624;BMP280;26325;48.594;11.650;2023-04-08T02:57:35;96742.31;;;3.31
40624;BMP280;26325;48.594;11.650;2023-04-08T03:00:02;96737.56;;;3.28
40624;BMP280;26325;48.594;11.650;2023-04-08T03:02:28;96736.41;;;3.30
40624;BMP280;26325;48.594;11.650;2023-04-08T03:04:56;96738.44;;;3.47
40624;BMP280;26325;48.594;11.650;2023-04-08T03:07:21;96743.72;;;3.40
40624;BMP280;26325;48.594;11.650;2023-04-08T03:09:47;96743.28;;;3.30
40624;BMP280;26325;48.594;11.650;2023-04-08T03:12:14;96746.63;;;3.37
40624;BMP280;26325;48.594;11.650;2023-04-08T03:14:40;96744.69;;;3.39
40624;BMP280;26325;48.594;11.650;2023-04-08T03:17:05;96749.19;;;3.30
40624;BMP280;26325;48.594;11.650;2023-04-08T03:19:31;96749.53;;;3.21
40624;BMP280;26325;48.594;11.650;2023-04-08T03:21:56;96752.28;;;3.20
40624;BMP280;26325;48.594;11.650;2023-04-08T03:24:24;96755.63;;;3.20
40624;BMP280;26325;48.594;11.650;2023-04-08T03:26:49;96756.38;;;3.14
40624;BMP280;26325;48.594;11.650;2023-04-08T03:29:15;96763.28;;;3.20
40624;BMP280;26325;48.594;11.650;2023-04-08T03:31:40;96761.31;;;3.22
40624;BMP280;26325;48.594;11.650;2023-04-08T03:34:06;96756.81;;;3.24
40624;BMP280;26325;48.594;11.650;2023-04-08T03:36:31;96756.81;;;3.24
40624;BMP280;26325;48.594;11.650;2023-04-08T03:38:57;96759.19;;;3.25
40624;BMP280;26325;48.594;11.650;2023-04-08T03:41:22;96758.97;;;3.27
40624;BMP280;26325;48.594;11.650;2023-04-08T03:43:47;96762.72;;;3.31
40624;BMP280;26325;48.594;11.650;2023-04-08T03:46:13;96759.31;;;3.11
40624;BMP280;26325;48.594;11.650;2023-04-08T03:48:38;96759.09;;;3.06
40624;BMP280;26325;48.594;11.650;2023-04-08T03:51:04;96761.50;;;3.14
40624;BMP280;26325;48.594;11.650;2023-04-08T03:53:29;96761.53;;;3.27
40624;BMP280;26325;48.594;11.650;2023-04-08T03:55:56;96761.38;;;3.35
40624;BMP280;26325;48.594;11.650;2023-04-08T03:58:21;96764.50;;;3.30
40624;BMP280;26325;48.594;11.650;2023-04-08T04:00:47;96765.47;;;3.36
40624;BMP280;26325;48.594;11.650;2023-04-08T04:03:12;96768.44;;;3.33
40624;BMP280;26325;48.594;11.650;2023-04-08T04:05:38;96765.69;;;3.34
40624;BMP280;26325;48.594;11.650;2023-04-08T04:08:04;96772.16;;;3.30
40624;BMP280;26325;48.594;11.650;2023-04-08T04:10:30;96778.06;;;3.31
40624;BMP280;26325;48.594;11.650;2023-04-08T04:12:55;96779.00;;;3.17
40624;BMP280;26325;48.594;11.650;2023-04-08T04:15:21;96772.84;;;3.05
40624;BMP280;26325;48.594;11.650;2023-04-08T04:17:49;96774.25;;;3.14
40624;BMP280;26325;48.594;11.650;2023-04-08T04:20:18;96780.69;;;3.10
40624;BMP280;26325;48.594;11.650;2023-04-08T04:22:44;96784.28;;;3.22
40624;BMP280;26325;48.594;11.650;2023-04-08T04:25:09;96790.63;;;3.26
40624;BMP280;26325;48.594;11.650;2023-04-08T04:27:35;96790.38;;;3.21
40624;BMP280;26325;48.594;11.650;2023-04-08T04:30:03;96784.81;;;3.05
40624;BMP280;26325;48.594;11.650;2023-04-08T04:32:29;96776.16;;;3.00
40624;BMP280;26325;48.594;11.650;2023-04-08T04:34:55;96782.28;;;3.11
40624;BMP280;26325;48.594;11.650;2023-04-08T04:37:20;96781.75;;;3.22
40624;BMP280;26325;48.594;11.650;2023-04-08T04:39:46;96793.38;;;3.37
40624;BMP280;26325;48.594;11.650;2023-04-08T04:42:12;96792.22;;;3.40
40624;BMP280;26325;48.594;11.650;2023-04-08T04:44:39;96789.50;;;3.47
40624;BMP280;26325;48.594;11.650;2023-04-08T04:47:05;96792.28;;;3.52
40624;BMP280;26325;48.594;11.650;2023-04-08T04:49:30;96791.81;;;3.36
40624;BMP280;26325;48.594;11.650;2023-04-08T04:51:56;96796.28;;;3.28
40624;BMP280;26325;48.594;11.650;2023-04-08T04:54:21;96801.22;;;3.36
40624;BMP280;26325;48.594;11.650;2023-04-08T04:56:47;96803.59;;;3.37
40624;BMP280;26325;48.594;11.650;2023-04-08T04:59:12;96793.44;;;3.43
40624;BMP280;26325;48.594;11.650;2023-04-08T05:01:40;96800.13;;;3.57
40624;BMP280;26325;48.594;11.650;2023-04-08T05:04:06;96798.56;;;3.56
40624;BMP280;26325;48.594;11.650;2023-04-08T05:06:32;96805.78;;;3.46
40624;BMP280;26325;48.594;11.650;2023-04-08T05:08:57;96815.81;;;3.48
40624;BMP280;26325;48.594;11.650;2023-04-08T05:11:23;96812.53;;;3.60
40624;BMP280;26325;48.594;11.650;2023-04-08T05:13:48;96813.94;;;3.75
40624;BMP280;26325;48.594;11.650;2023-04-08T05:16:16;96816.44;;;3.56
40624;BMP280;26325;48.594;11.650;2023-04-08T05:18:42;96817.81;;;3.52
40624;BMP280;26325;48.594;11.650;2023-04-08T05:21:07;96809.94;;;3.47
40624;BMP280;26325;48.594;11.650;2023-04-08T05:23:34;96814.69;;;3.63
40624;BMP280;26325;48.594;11.650;2023-04-08T05:25:59;96815.91;;;3.67
40624;BMP280;26325;48.594;11.650;2023-04-08T05:28:25;96814.38;;;3.85
40624;BMP280;26325;48.594;11.650;2023-04-08T05:30:51;96823.03;;;3.90
40624;BMP280;26325;48.594;11.650;2023-04-08T05:33:17;96820.47;;;3.90
40624;BMP280;26325;48.594;11.650;2023-04-08T05:35:43;96823.44;;;4.00
40624;BMP280;26325;48.594;11.650;2023-04-08T05:38:08;96826.59;;;4.02
40624;BMP280;26325;48.594;11.650;2023-04-08T05:40:34;96824.41;;;4.05
40624;BMP280;26325;48.594;11.650;2023-04-08T05:43:00;96821.09;;;4.18
40624;BMP280;26325;48.594;11.650;2023-04-08T05:45:26;96827.78;;;4.31
40624;BMP280;26325;48.594;11.650;2023-04-08T05:47:52;96825.84;;;4.46
40624;BMP280;26325;48.594;11.650;2023-04-08T05:50:17;96821.31;;;4.60
40624;BMP280;26325;48.594;11.650;2023-04-08T05:52:43;96825.06;;;4.71
40624;BMP280;26325;48.594;11.650;2023-04-08T05:55:09;96829.00;;;4.73
40624;BMP280;26325;48.594;11.650;2023-04-08T05:57:35;96833.69;;;4.89
40624;BMP280;26325;48.594;11.650;2023-04-08T06:00:01;96831.31;;;4.93
40624;BMP280;26325;48.594;11.650;2023-04-08T06:02:26;96833.09;;;4.87
40624;BMP280;26325;48.594;11.650;2023-04-08T06:04:54;96832.28;;;4.93
40624;BMP280;26325;48.594;11.650;2023-04-08T06:07:19;96836.03;;;5.03
40624;BMP280;26325;48.594;11.650;2023-04-08T06:09:45;96835.38;;;5.26
40624;BMP280;26325;48.594;11.650;2023-04-08T06:12:11;96845.75;;;5.44
40624;BMP280;26325;48.594;11.650;2023-04-08T06:14:38;96844.75;;;5.51
40624;BMP280;26325;48.594;11.650;2023-04-08T06:17:04;96846.50;;;5.57
40624;BMP280;26325;48.594;11.650;2023-04-08T06:19:30;96843.75;;;5.58
40624;BMP280;26325;48.594;11.650;2023-04-08T06:21:55;96847.25;;;5.64
40624;BMP280;26325;48.594;11.650;2023-04-08T06:24:24;96853.19;;;5.70
40624;BMP280;26325;48.594;11.650;2023-04-08T06:26:50;96847.59;;;5.86
40624;BMP280;26325;48.594;11.650;2023-04-08T06:29:17;96848.28;;;6.06
40624;BMP280;26325;48.594;11.650;2023-04-08T06:31:42;96847.88;;;6.08
40624;BMP280;26325;48.594;11.650;2023-04-08T06:34:08;96849.00;;;6.12
40624;BMP280;26325;48.594;11.650;2023-04-08T06:36:33;96850.78;;;6.18
40624;BMP280;26325;48.594;11.650;2023-04-08T06:38:59;96855.91;;;6.18
40624;BMP280;26325;48.594;11.650;2023-04-08T06:41:24;96858.97;;;6.33
40624;BMP280;26325;48.594;11.650;2023-04-08T06:43:50;96854.56;;;6.40
40624;BMP280;26325;48.594;11.650;2023-04-08T06:46:17;96858.75;;;6.34
40624;BMP280;26325;48.594;11.650;2023-04-08T06:48:43;96859.03;;;6.50
40624;BMP280;26325;48.594;11.650;2023-04-08T06:51:08;96862.28;;;6.64
40624;BMP280;26325;48.594;11.650;2023-04-08T06:53:34;96859.69;;;6.70
40624;BMP280;26325;48.594;11.650;2023-04-08T06:56:00;96857.41;;;6.80
40624;BMP280;26325;48.594;11.650;2023-04-08T06:58:25;96859.50;;;6.89
40624;BMP280;26325;48.594;11.650;2023-04-08T07:00:53;96868.16;;;6.94
40624;BMP280;26325;48.594;11.650;2023-04-08T07:03:19;96859.41;;;7.02
40624;BMP280;26325;48.594;11.650;2023-04-08T07:05:44;96876.91;;;7.28
40624;BMP280;26325;48.594;11.650;2023-04-08T07:08:10;96874.47;;;7.16
40624;BMP280;26325;48.594;11.650;2023-04-08T07:10:35;96874.63;;;7.21
40624;BMP280;26325;48.594;11.650;2023-04-08T07:13:01;96877.25;;;7.32
40624;BMP280;26325;48.594;11.650;2023-04-08T07:15:26;96881.06;;;7.29
40624;BMP280;26325;48.594;11.650;2023-04-08T07:17:52;96885.56;;;7.34
40624;BMP280;26325;48.594;11.650;2023-04-08T07:20:20;96886.06;;;7.42
40624;BMP280;26325;48.594;11.650;2023-04-08T07:22:47;96885.00;;;7.49
40624;BMP280;26325;48.594;11.650;2023-04-08T07:25:12;96890.50;;;7.53
40624;BMP280;26325;48.594;11.650;2023-04-08T07:27:38;96895.13;;;7.44
40624;BMP280;26325;48.594;11.650;2023-04-08T07:30:03;96898.06;;;7.48
40624;BMP280;26325;48.594;11.650;2023-04-08T07:32:29;96895.50;;;7.48
40624;BMP280;26325;48.594;11.650;2023-04-08T07:34:55;96899.50;;;7.44
40624;BMP280;26325;48.594;11.650;2023-04-08T07:37:20;96898.78;;;7.37
40624;BMP280;26325;48.594;11.650;2023-04-08T07:39:45;96900.34;;;7.38
40624;BMP280;26325;48.594;11.650;2023-04-08T07:42:11;96901.06;;;7.45
40624;BMP280;26325;48.594;11.650;2023-04-08T07:44:36;96901.28;;;7.43
40624;BMP280;26325;48.594;11.650;2023-04-08T07:47:02;96901.63;;;7.47
40624;BMP280;26325;48.594;11.650;2023-04-08T07:49:28;96900.22;;;7.68
40624;BMP280;26325;48.594;11.650;2023-04-08T07:51:53;96908.91;;;7.67
40624;BMP280;26325;48.594;11.650;2023-04-08T07:54:19;96912.63;;;7.54
40624;BMP280;26325;48.594;11.650;2023-04-08T07:56:44;96929.75;;;7.60
40624;BMP280;26325;48.594;11.650;2023-04-08T07:59:10;96921.28;;;7.59
40624;BMP280;26325;48.594;11.650;2023-04-08T08:01:36;96922.63;;;7.44
40624;BMP280;26325;48.594;11.650;2023-04-08T08:04:01;96913.50;;;7.48
40624;BMP280;26325;48.594;11.650;2023-04-08T08:06:27;96918.34;;;7.56
40624;BMP280;26325;48.594;11.650;2023-04-08T08:08:53;96925.78;;;7.63
40624;BMP280;26325;48.594;11.650;2023-04-08T08:11:21;96925.78;;;7.63
40624;BMP280;26325;48.594;11.650;2023-04-08T08:13:46;96926.78;;;7.62
40624;BMP280;26325;48.594;11.650;2023-04-08T08:16:12;96933.63;;;7.51
40624;BMP280;26325;48.594;11.650;2023-04-08T08:18:38;96933.03;;;7.49
40624;BMP280;26325;48.594;11.650;2023-04-08T08:21:04;96937.44;;;7.42
40624;BMP280;26325;48.594;11.650;2023-04-08T08:23:30;96938.66;;;7.22
40624;BMP280;26325;48.594;11.650;2023-04-08T08:26:03;96945.94;;;7.01
40624;BMP280;26325;48.594;11.650;2023-04-08T08:28:29;96952.47;;;6.97
40624;BMP280;26325;48.594;11.650;2023-04-08T08:30:54;96945.44;;;6.86
40624;BMP280;26325;48.594;11.650;2023-04-08T08:33:20;96949.34;;;6.65
40624;BMP280;26325;48.594;11.650;2023-04-08T08:35:45;96952.09;;;6.64
40624;BMP280;26325;48.594;11.650;2023-04-08T08:38:11;96953.00;;;6.51
40624;BMP280;26325;48.594;11.650;2023-04-08T08:40:38;96955.31;;;6.59
40624;BMP280;26325;48.594;11.650;2023-04-08T08:43:03;96955.66;;;6.69
40624;BMP280;26325;48.594;11.650;2023-04-08T08:45:29;96954.28;;;6.66
40624;BMP280;26325;48.594;11.650;2023-04-08T08:47:55;96953.81;;;6.76
40624;BMP280;26325;48.594;11.650;2023-04-08T08:50:20;96956.88;;;6.60
40624;BMP280;26325;48.594;11.650;2023-04-08T08:52:50;96965.56;;;6.59
40624;BMP280;26325;48.594;11.650;2023-04-08T08:55:19;96976.03;;;6.58
40624;BMP280;26325;48.594;11.650;2023-04-08T08:57:45;96970.72;;;6.59
40624;BMP280;26325;48.594;11.650;2023-04-08T09:00:11;96973.88;;;6.61
40624;BMP280;26325;48.594;11.650;2023-04-08T09:02:37;96987.22;;;6.69
40624;BMP280;26325;48.594;11.650;2023-04-08T09:05:03;96978.50;;;6.77
40624;BMP280;26325;48.594;11.650;2023-04-08T09:07:30;96982.66;;;6.78
40624;BMP280;26325;48.594;11.650;2023-04-08T09:09:57;96970.63;;;6.72
40624;BMP280;26325;48.594;11.650;2023-04-08T09:12:24;96981.06;;;6.77
40624;BMP280;26325;48.594;11.650;2023-04-08T09:14:50;96973.31;;;6.83
40624;BMP280;26325;48.594;11.650;2023-04-08T09:17:31;96978.41;;;6.89
40624;BMP280;26325;48.594;11.650;2023-04-08T09:20:08;96977.47;;;7.08
40624;BMP280;26325;48.594;11.650;2023-04-08T09:22:58;96975.91;;;7.07
40624;BMP280;26325;48.594;11.650;2023-04-08T09:25:33;96980.94;;;7.20
40624;BMP280;26325;48.594;11.650;2023-04-08T09:28:02;96983.00;;;7.35
40624;BMP280;26325;48.594;11.650;2023-04-08T09:30:28;96970.81;;;7.48
40624;BMP280;26325;48.594;11.650;2023-04-08T09:32:55;96971.78;;;7.71
40624;BMP280;26325;48.594;11.650;2023-04-08T09:35:24;96973.78;;;7.69
40624;BMP280;26325;48.594;11.650;2023-04-08T09:37:50;96974.78;;;7.86
40624;BMP280;26325;48.594;11.650;2023-04-08T09:40:16;96975.22;;;8.00
40624;BMP280;26325;48.594;11.650;2023-04-08T09:42:46;96975.41;;;8.05
40624;BMP280;26325;48.594;11.650;2023-04-08T09:45:15;96975.94;;;7.90
40624;BMP280;26325;48.594;11.650;2023-04-08T09:50:31;96982.47;;;7.68
40624;BMP280;26325;48.594;11.650;2023-04-08T09:53:00;96983.94;;;7.58
40624;BMP280;26325;48.594;11.650;2023-04-08T09:55:28;96985.88;;;7.45
40624;BMP280;26325;48.594;11.650;2023-04-08T09:58:00;96983.66;;;7.24
40624;BMP280;26325;48.594;11.650;2023-04-08T10:00:33;96975.50;;;7.10
40624;BMP280;26325;48.594;11.650;2023-04-08T10:03:06;96989.66;;;6.88
40624;BMP280;26325;48.594;11.650;2023-04-08T10:05:39;96993.13;;;6.76
40624;BMP280;26325;48.594;11.650;2023-04-08T10:08:06;96993.44;;;6.86
40624;BMP280;26325;48.594;11.650;2023-04-08T10:10:34;96999.63;;;6.79
40624;BMP280;26325;48.594;11.650;2023-04-08T10:13:02;97010.44;;;6.87
40624;BMP280;26325;48.594;11.650;2023-04-08T10:15:32;97001.34;;;6.84
40624;BMP280;26325;48.594;11.650;2023-04-08T10:23:01;96995.97;;;7.16
40624;BMP280;26325;48.594;11.650;2023-04-08T10:25:39;96992.81;;;7.21
40624;BMP280;26325;48.594;11.650;2023-04-08T10:36:07;96997.50;;;7.23
40624;BMP280;26325;48.594;11.650;2023-04-08T10:38:39;96999.00;;;7.37
40624;BMP280;26325;48.594;11.650;2023-04-08T10:41:06;96995.44;;;7.38
40624;BMP280;26325;48.594;11.650;2023-04-08T10:43:32;96998.50;;;7.46
40624;BMP280;26325;48.594;11.650;2023-04-08T10:45:58;97004.19;;;7.55
40624;BMP280;26325;48.594;11.650;2023-04-08T10:48:24;97000.13;;;7.41
40624;BMP280;26325;48.594;11.650;2023-04-08T10:51:00;96998.81;;;7.32
40624;BMP280;26325;48.594;11.650;2023-04-08T10:53:27;97003.94;;;7.32
40624;BMP280;26325;48.594;11.650;2023-04-08T10:55:54;97000.72;;;7.43
40624;BMP280;26325;48.594;11.650;2023-04-08T10:58:20;96997.47;;;7.30
40624;BMP280;26325;48.594;11.650;2023-04-08T11:00:45;96992.16;;;7.25
40624;BMP280;26325;48.594;11.650;2023-04-08T11:03:11;97001.50;;;7.20
40624;BMP280;26325;48.594;11.650;2023-04-08T11:05:37;96999.72;;;7.20
40624;BMP280;26325;48.594;11.650;2023-04-08T11:08:04;96999.78;;;7.14
40624;BMP280;26325;48.594;11.650;2023-04-08T11:10:29;97002.75;;;7.11
40624;BMP280;26325;48.594;11.650;2023-04-08T11:12:55;97001.97;;;7.10
40624;BMP280;26325;48.594;11.650;2023-04-08T11:15:21;97013.63;;;7.13
40624;BMP280;26325;48.594;11.650;2023-04-08T11:17:48;97004.78;;;7.03
40624;BMP280;26325;48.594;11.650;2023-04-08T11:20:14;97010.25;;;7.12
40624;BMP280;26325;48.594;11.650;2023-04-08T11:22:39;97001.31;;;7.15
40624;BMP280;26325;48.594;11.650;2023-04-08T11:25:06;97003.88;;;7.21
40624;BMP280;26325;48.594;11.650;2023-04-08T11:27:36;97007.56;;;7.01
40624;BMP280;26325;48.594;11.650;2023-04-08T11:30:02;97007.94;;;7.04
40624;BMP280;26325;48.594;11.650;2023-04-08T11:32:29;97005.97;;;7.00
40624;BMP280;26325;48.594;11.650;2023-04-08T11:35:00;97016.34;;;6.87
40624;BMP280;26325;48.594;11.650;2023-04-08T11:37:39;97011.16;;;6.94
40624;BMP280;26325;48.594;11.650;2023-04-08T11:40:12;97009.19;;;6.96
40624;BMP280;26325;48.594;11.650;2023-04-08T11:42:38;97017.25;;;6.99
40624;BMP280;26325;48.594;11.650;2023-04-08T11:45:14;97011.72;;;7.02
40624;BMP280;26325;48.594;11.650;2023-04-08T11:47:46;97013.75;;;7.18
40624;BMP280;26325;48.594;11.650;2023-04-08T11:50:25;97010.34;;;7.23
40624;BMP280;26325;48.594;11.650;2023-04-08T11:52:52;96998.19;;;7.60
40624;BMP280;26325;48.594;11.650;2023-04-08T11:55:22;97005.34;;;7.76
40624;BMP280;26325;48.594;11.650;2023-04-08T11:57:48;97003.47;;;7.83
40624;BMP280;26325;48.594;11.650;2023-04-08T12:00:14;97010.53;;;8.11
40624;BMP280;26325;48.594;11.650;2023-04-08T12:02:41;97004.81;;;8.27
40624;BMP280;26325;48.594;11.650;2023-04-08T12:05:07;97006.34;;;8.34
40624;BMP280;26325;48.594;11.650;2023-04-08T12:07:32;97007.19;;;8.28
40624;BMP280;26325;48.594;11.650;2023-04-08T12:09:58;97009.81;;;8.39
40624;BMP280;26325;48.594;11.650;2023-04-08T12:12:23;97010.97;;;8.26
40624;BMP280;26325;48.594;11.650;2023-04-08T12:14:49;97012.41;;;8.22
40624;BMP280;26325;48.594;11.650;2023-04-08T12:17:15;97006.75;;;8.14
40624;BMP280;26325;48.594;11.650;2023-04-08T12:19:40;97005.25;;;8.24
40624;BMP280;26325;48.594;11.650;2023-04-08T12:22:05;97012.41;;;8.22
40624;BMP280;26325;48.594;11.650;2023-04-08T12:24:31;97010.94;;;8.43
40624;BMP280;26325;48.594;11.650;2023-04-08T12:26:57;97013.66;;;8.48
40624;BMP280;26325;48.594;11.650;2023-04-08T12:29:22;97011.59;;;8.56
40624;BMP280;26325;48.594;11.650;2023-04-08T12:31:50;97005.75;;;8.50
40624;BMP280;26325;48.594;11.650;2023-04-08T12:34:17;97011.59;;;8.56
40624;BMP280;26325;48.594;11.650;2023-04-08T12:36:43;97013.81;;;8.36
40624;BMP280;26325;48.594;11.650;2023-04-08T12:39:09;97013.09;;;8.29
40624;BMP280;26325;48.594;11.650;2023-04-08T12:41:34;97018.84;;;8.13
40624;BMP280;26325;48.594;11.650;2023-04-08T12:43:59;97018.13;;;8.06
40624;BMP280;26325;48.594;11.650;2023-04-08T12:46:25;97020.63;;;8.13
40624;BMP280;26325;48.594;11.650;2023-04-08T12:48:51;97023.56;;;8.16
40624;BMP280;26325;48.594;11.650;2023-04-08T12:51:16;97017.97;;;8.19
40624;BMP280;26325;48.594;11.650;2023-04-08T12:53:42;97022.97;;;8.14
40624;BMP280;26325;48.594;11.650;2023-04-08T12:56:07;97022.69;;;8.04
40624;BMP280;26325;48.594;11.650;2023-04-08T12:58:33;97021.19;;;8.15
40624;BMP280;26325;48.594;11.650;2023-04-08T13:01:00;97021.28;;;8.08
40624;BMP280;26325;48.594;11.650;2023-04-08T13:03:26;97016.38;;;8.00
40624;BMP280;26325;48.594;11.650;2023-04-08T13:05:54;97025.84;;;8.06
40624;BMP280;26325;48.594;11.650;2023-04-08T13:08:20;97022.94;;;7.97
40624;BMP280;26325;48.594;11.650;2023-04-08T13:10:46;97026.69;;;8.00
40624;BMP280;26325;48.594;11.650;2023-04-08T13:13:12;97020.00;;;7.99
40624;BMP280;26325;48.594;11.650;2023-04-08T13:15:38;97016.38;;;8.00
40624;BMP280;26325;48.594;11.650;2023-04-08T13:18:04;97016.00;;;7.97
40624;BMP280;26325;48.594;11.650;2023-04-08T13:20:29;97021.69;;;8.05
40624;BMP280;26325;48.594;11.650;2023-04-08T13:22:54;97020.41;;;8.14
40624;BMP280;26325;48.594;11.650;2023-04-08T13:25:20;97020.91;;;8.05
40624;BMP280;26325;48.594;11.650;2023-04-08T13:27:45;97018.75;;;8.02
40624;BMP280;26325;48.594;11.650;2023-04-08T13:30:11;97018.38;;;7.98
40624;BMP280;26325;48.594;11.650;2023-04-08T13:32:37;97017.19;;;8.01
40624;BMP280;26325;48.594;11.650;2023-04-08T13:35:02;97017.44;;;7.93
40624;BMP280;26325;48.594;11.650;2023-04-08T13:37:31;97022.22;;;7.90
40624;BMP280;26325;48.594;11.650;2023-04-08T13:39:56;97029.00;;;7.84
40624;BMP280;26325;48.594;11.650;2023-04-08T13:42:22;97039.75;;;7.75
40624;BMP280;26325;48.594;11.650;2023-04-08T13:44:47;97030.34;;;7.69
40624;BMP280;26325;48.594;11.650;2023-04-08T13:47:13;97025.25;;;7.63
40624;BMP280;26325;48.594;11.650;2023-04-08T13:49:39;97030.75;;;7.66
40624;BMP280;26325;48.594;11.650;2023-04-08T13:52:04;97035.47;;;7.69
40624;BMP280;26325;48.594;11.650;2023-04-08T13:54:29;97019.63;;;7.72
40624;BMP280;26325;48.594;11.650;2023-04-08T13:56:55;97024.06;;;7.83
40624;BMP280;26325;48.594;11.650;2023-04-08T13:59:21;97026.88;;;7.81
40624;BMP280;26325;48.594;11.650;2023-04-08T14:01:47;97021.66;;;7.88
40624;BMP280;26325;48.594;11.650;2023-04-08T14:04:12;97033.06;;;7.92
40624;BMP280;26325;48.594;11.650;2023-04-08T14:06:38;97020.66;;;7.89
40624;BMP280;26325;48.594;11.650;2023-04-08T14:09:03;97034.22;;;7.96
40624;BMP280;26325;48.594;11.650;2023-04-08T14:11:31;97026.94;;;7.93
40624;BMP280;26325;48.594;11.650;2023-04-08T14:13:56;97034.81;;;7.98
40624;BMP280;26325;48.594;11.650;2023-04-08T14:16:22;97034.22;;;7.96
40624;BMP280;26325;48.594;11.650;2023-04-08T14:18:47;97029.25;;;8.00
40624;BMP280;26325;48.594;11.650;2023-04-08T14:21:13;97028.09;;;7.97
40624;BMP280;26325;48.594;11.650;2023-04-08T14:23:40;97032.44;;;7.96
40624;BMP280;26325;48.594;11.650;2023-04-08T14:26:05;97038.38;;;7.97
40624;BMP280;26325;48.594;11.650;2023-04-08T14:28:31;97041.84;;;8.08
40624;BMP280;26325;48.594;11.650;2023-04-08T14:30:56;97029.25;;;8.00